Time;durP1;ratioP1;P1;durP2;ratioP2;P2;SDS_P1;SDS_P2;PMS_P1;PMS_P2;Temp;Humidity;BMP_temperature;BMP_pressure;BME280_temperature;BME280_humidity;BME280_pressure;Samples;Min_cycle;Max_cycle;Signal;HPM_P1;HPM_P2
2023/05/20 00:02:36;;;;;;;;;7.50;7.50;;;;;;;;2;216063608;216063608;-88
2023/05/20 00:10:51;;;;;;;;;8.00;8.00;;;;;;;;2;261074007;261074007;-88
2023/05/20 00:19:07;;;;;;;;;8.50;6.00;;;;;;;;2;216065838;216065838;-88
2023/05/20 00:27:22;;;;;;;;;8.00;8.00;;;;;;;;2;261074120;261074120;-88
2023/05/20 00:35:37;;;;;;;;;17.50;8.50;;;;;;;;2;216063967;216063967;-88
2023/05/20 00:43:53;;;;;;;;;12.00;12.00;;;;;;;;2;261076746;261076746;-88
2023/05/20 00:52:09;;;;;;;;;16.00;16.00;;;;;;;;2;216063857;216063857;-88
2023/05/20 01:00:24;;;;;;;;;10.50;10.50;;;;;;;;2;261075173;261075173;-88
2023/05/20 01:08:40;;;;;;;;;10.50;10.50;;;;;;;;2;216063853;216063853;-88
2023/05/20 01:16:57;;;;;;;;;7.00;7.00;;;;;;;;2;261078146;261078146;-88
2023/05/20 01:25:13;;;;;;;;;7.50;7.50;;;;;;;;2;216064262;216064262;-87
2023/05/20 01:33:29;;;;;;;;;13.50;13.50;;;;;;;;2;261073491;261073491;-88
2023/05/20 01:41:46;;;;;;;;;10.00;10.00;;;;;;;;2;216064231;216064231;-88
2023/05/20 01:50:02;;;;;;;;;13.00;13.00;;;;;;;;2;261075137;261075137;-88
2023/05/20 01:58:17;;;;;;;;;10.50;10.50;;;;;;;;2;216065223;216065223;-88
2023/05/20 02:06:33;;;;;;;;;17.50;17.50;;;;;;;;2;261074822;261074822;-87
2023/05/20 02:14:49;;;;;;;;;17.50;17.50;;;;;;;;2;216061610;216061610;-87
2023/05/20 02:23:04;;;;;;;;;9.00;9.00;;;;;;;;2;261079216;261079216;-87
2023/05/20 02:31:20;;;;;;;;;14.00;14.00;;;;;;;;2;216066487;216066487;-87
2023/05/20 02:39:35;;;;;;;;;23.00;23.00;;;;;;;;2;261078610;261078610;-87
2023/05/20 02:47:51;;;;;;;;;9.00;9.00;;;;;;;;2;216061913;216061913;-87
2023/05/20 02:56:07;;;;;;;;;19.50;19.50;;;;;;;;2;261073987;261073987;-88
2023/05/20 03:04:24;;;;;;;;;19.50;19.50;;;;;;;;2;216064194;216064194;-88
2023/05/20 03:12:40;;;;;;;;;14.50;14.50;;;;;;;;2;261076771;261076771;-88
2023/05/20 03:20:56;;;;;;;;;19.50;19.50;;;;;;;;2;216065557;216065557;-88
2023/05/20 03:29:11;;;;;;;;;16.50;16.50;;;;;;;;2;261074794;261074794;-87
2023/05/20 03:37:26;;;;;;;;;15.50;15.50;;;;;;;;2;216064825;216064825;-87
2023/05/20 03:45:42;;;;;;;;;15.50;15.50;;;;;;;;2;261076675;261076675;-87
2023/05/20 03:53:57;;;;;;;;;14.00;14.00;;;;;;;;2;216063922;216063922;-87
2023/05/20 04:02:13;;;;;;;;;13.00;13.00;;;;;;;;2;261075278;261075278;-87
2023/05/20 04:10:29;;;;;;;;;16.00;16.00;;;;;;;;2;216064870;216064870;-88
2023/05/20 04:18:47;;;;;;;;;17.50;17.50;;;;;;;;2;261076800;261076800;-87
2023/05/20 04:27:02;;;;;;;;;13.50;13.50;;;;;;;;2;216064471;216064471;-88
2023/05/20 04:35:18;;;;;;;;;12.00;12.00;;;;;;;;2;261078030;261078030;-88
2023/05/20 04:43:33;;;;;;;;;7.00;7.00;;;;;;;;2;216063629;216063629;-88
2023/05/20 04:51:50;;;;;;;;;6.00;6.00;;;;;;;;2;261077368;261077368;-88
2023/05/20 05:00:07;;;;;;;;;9.50;9.50;;;;;;;;2;216061555;216061555;-88
2023/05/20 05:08:23;;;;;;;;;10.50;10.50;;;;;;;;2;261075149;261075149;-87
2023/05/20 05:16:38;;;;;;;;;7.00;7.00;;;;;;;;2;216064336;216064336;-88
2023/05/20 05:24:54;;;;;;;;;13.50;13.50;;;;;;;;2;261076329;261076329;-88
2023/05/20 05:33:09;;;;;;;;;11.00;11.00;;;;;;;;2;216062239;216062239;-88
2023/05/20 05:41:25;;;;;;;;;10.00;10.00;;;;;;;;2;261075323;261075323;-87
2023/05/20 05:49:40;;;;;;;;;8.50;8.50;;;;;;;;2;216064402;216064402;-88
2023/05/20 05:57:56;;;;;;;;;10.50;10.50;;;;;;;;2;261076205;261076205;-88
2023/05/20 06:06:11;;;;;;;;;11.50;11.50;;;;;;;;2;216062860;216062860;-88
2023/05/20 06:14:27;;;;;;;;;7.50;7.50;;;;;;;;2;261074953;261074953;-88
2023/05/20 06:22:42;;;;;;;;;12.00;12.00;;;;;;;;2;216064160;216064160;-88
2023/05/20 06:30:57;;;;;;;;;11.00;11.00;;;;;;;;2;261073815;261073815;-88
2023/05/20 06:39:13;;;;;;;;;10.50;10.50;;;;;;;;2;216063857;216063857;-88
2023/05/20 06:47:28;;;;;;;;;7.00;7.00;;;;;;;;2;261078444;261078444;-88
2023/05/20 06:55:44;;;;;;;;;5.00;5.00;;;;;;;;2;216062059;216062059;-88
2023/05/20 07:03:59;;;;;;;;;4.50;4.50;;;;;;;;2;261075398;261075398;-88
2023/05/20 07:12:15;;;;;;;;;6.00;6.00;;;;;;;;2;216065479;216065479;-88
2023/05/20 07:20:30;;;;;;;;;6.50;6.50;;;;;;;;2;261075431;261075431;-88
2023/05/20 07:28:46;;;;;;;;;6.00;6.00;;;;;;;;2;216064281;216064281;-88
2023/05/20 07:37:01;;;;;;;;;9.00;9.00;;;;;;;;2;261075031;261075031;-88
2023/05/20 07:45:17;;;;;;;;;4.50;4.50;;;;;;;;2;216066831;216066831;-88
2023/05/20 07:53:32;;;;;;;;;5.00;5.00;;;;;;;;2;261076863;261076863;-88
2023/05/20 08:01:48;;;;;;;;;10.00;10.00;;;;;;;;2;216063222;216063222;-88
2023/05/20 08:10:03;;;;;;;;;4.50;4.50;;;;;;;;2;261075990;261075990;-88
2023/05/20 08:18:19;;;;;;;;;6.00;6.00;;;;;;;;2;216063488;216063488;-88
2023/05/20 08:26:34;;;;;;;;;7.00;7.00;;;;;;;;2;261074537;261074537;-88
2023/05/20 08:34:50;;;;;;;;;6.00;6.00;;;;;;;;2;216062862;216062862;-88
2023/05/20 08:43:05;;;;;;;;;5.50;5.50;;;;;;;;2;261072207;261072207;-88
2023/05/20 08:51:22;;;;;;;;;2.50;2.50;;;;;;;;2;216065659;216065659;-88
2023/05/20 08:59:39;;;;;;;;;6.50;6.50;;;;;;;;2;261076901;261076901;-88
2023/05/20 09:08:05;;;;;;;;;6.00;6.00;;;;;;;;2;216064479;216064479;-88
2023/05/20 09:16:21;;;;;;;;;4.50;4.50;;;;;;;;2;261078368;261078368;-88
2023/05/20 09:24:36;;;;;;;;;7.00;7.00;;;;;;;;2;216063797;216063797;-88
2023/05/20 09:32:55;;;;;;;;;5.00;5.00;;;;;;;;2;261077346;261077346;-89
2023/05/20 09:41:12;;;;;;;;;1.50;1.50;;;;;;;;2;216062745;216062745;-88
2023/05/20 09:49:28;;;;;;;;;7.50;7.50;;;;;;;;2;261076282;261076282;-89
2023/05/20 09:57:44;;;;;;;;;5.00;5.00;;;;;;;;2;216063619;216063619;-89
2023/05/20 10:06:03;;;;;;;;;4.50;4.50;;;;;;;;2;261076176;261076176;-88
2023/05/20 10:14:37;;;;;;;;;7.00;7.00;;;;;;;;2;216063566;216063566;-88
2023/05/20 10:22:59;;;;;;;;;5.50;5.50;;;;;;;;2;261074964;261074964;-88
2023/05/20 10:31:18;;;;;;;;;8.00;8.00;;;;;;;;2;216065773;216065773;-89
2023/05/20 10:39:34;;;;;;;;;2.50;2.50;;;;;;;;2;261074079;261074079;-89
2023/05/20 10:47:56;;;;;;;;;10.00;10.00;;;;;;;;2;216065022;216065022;-88
2023/05/20 10:56:25;;;;;;;;;5.00;5.00;;;;;;;;2;261079190;261079190;-89
2023/05/20 11:04:44;;;;;;;;;6.00;6.00;;;;;;;;2;216066907;216066907;-89
2023/05/20 11:13:00;;;;;;;;;8.00;8.00;;;;;;;;2;261077269;261077269;-89
2023/05/20 11:21:16;;;;;;;;;5.50;5.50;;;;;;;;2;216061861;216061861;-89
2023/05/20 11:29:32;;;;;;;;;4.00;4.00;;;;;;;;2;261076971;261076971;-88
2023/05/20 11:37:53;;;;;;;;;4.00;4.00;;;;;;;;2;216062971;216062971;-89
2023/05/20 11:46:08;;;;;;;;;4.50;4.50;;;;;;;;2;261074228;261074228;-89
2023/05/20 11:54:23;;;;;;;;;7.00;7.00;;;;;;;;2;216064880;216064880;-89
2023/05/20 12:02:39;;;;;;;;;8.50;8.50;;;;;;;;2;261078002;261078002;-89
2023/05/20 12:10:55;;;;;;;;;6.50;6.50;;;;;;;;2;216064125;216064125;-89
2023/05/20 12:19:10;;;;;;;;;5.50;5.50;;;;;;;;2;261076886;261076886;-89
2023/05/20 12:27:25;;;;;;;;;8.50;8.50;;;;;;;;2;216064038;216064038;-89
2023/05/20 12:35:41;;;;;;;;;8.50;8.50;;;;;;;;2;261077226;261077226;-89
2023/05/20 12:43:57;;;;;;;;;7.00;7.00;;;;;;;;2;216064846;216064846;-89
2023/05/20 12:52:12;;;;;;;;;4.00;4.00;;;;;;;;2;261076819;261076819;-89
2023/05/20 13:00:32;;;;;;;;;3.50;3.50;;;;;;;;2;216061925;216061925;-88
2023/05/20 13:08:47;;;;;;;;;4.00;4.00;;;;;;;;2;261077156;261077156;-88
2023/05/20 13:17:03;;;;;;;;;2.50;2.50;;;;;;;;2;216064825;216064825;-89
2023/05/20 13:25:18;;;;;;;;;3.00;3.00;;;;;;;;2;261076273;261076273;-88
2023/05/20 13:33:34;;;;;;;;;3.00;3.00;;;;;;;;2;216065124;216065124;-88
2023/05/20 13:41:52;;;;;;;;;4.50;4.50;;;;;;;;2;261077252;261077252;-89
2023/05/20 13:50:07;;;;;;;;;6.50;6.50;;;;;;;;2;216063240;216063240;-88
2023/05/20 13:58:23;;;;;;;;;3.00;3.00;;;;;;;;2;261073947;261073947;-88
2023/05/20 14:06:38;;;;;;;;;3.00;3.00;;;;;;;;2;216065784;216065784;-88
2023/05/20 14:14:54;;;;;;;;;3.00;3.00;;;;;;;;2;261077708;261077708;-88
2023/05/20 14:23:10;;;;;;;;;2.50;2.50;;;;;;;;2;216062386;216062386;-88
2023/05/20 14:31:26;;;;;;;;;6.00;6.00;;;;;;;;2;261075476;261075476;-88
2023/05/20 14:39:41;;;;;;;;;1.50;1.50;;;;;;;;2;216062419;216062419;-88
2023/05/20 14:47:56;;;;;;;;;4.50;4.50;;;;;;;;2;261076609;261076609;-88
2023/05/20 14:56:12;;;;;;;;;3.00;3.00;;;;;;;;2;216064493;216064493;-88
2023/05/20 15:04:27;;;;;;;;;2.50;2.50;;;;;;;;2;261076857;261076857;-88
2023/05/20 15:12:43;;;;;;;;;4.00;4.00;;;;;;;;2;216062958;216062958;-88
2023/05/20 15:21:01;;;;;;;;;6.50;6.50;;;;;;;;2;261075595;261075595;-88
2023/05/20 15:29:17;;;;;;;;;7.00;7.00;;;;;;;;2;216063672;216063672;-88
2023/05/20 15:37:32;;;;;;;;;1.50;1.50;;;;;;;;2;261076963;261076963;-88
2023/05/20 15:45:48;;;;;;;;;6.00;6.00;;;;;;;;2;216062816;216062816;-88
2023/05/20 15:54:03;;;;;;;;;5.50;5.50;;;;;;;;2;261077020;261077020;-88
2023/05/20 16:02:18;;;;;;;;;6.00;6.00;;;;;;;;2;216061888;216061888;-88
2023/05/20 16:10:34;;;;;;;;;6.00;6.00;;;;;;;;2;261075086;261075086;-88
2023/05/20 16:18:49;;;;;;;;;4.50;4.50;;;;;;;;2;216064048;216064048;-88
2023/05/20 16:27:05;;;;;;;;;5.50;5.50;;;;;;;;2;261073742;261073742;-88
2023/05/20 16:35:21;;;;;;;;;4.00;4.00;;;;;;;;2;216063776;216063776;-88
2023/05/20 16:43:36;;;;;;;;;5.50;5.50;;;;;;;;2;261074777;261074777;-88
2023/05/20 16:51:51;;;;;;;;;3.50;3.50;;;;;;;;2;216062603;216062603;-88
2023/05/20 17:00:08;;;;;;;;;4.50;4.50;;;;;;;;2;261077251;261077251;-88
2023/05/20 17:08:23;;;;;;;;;3.50;3.50;;;;;;;;2;216066002;216066002;-88
2023/05/20 17:16:39;;;;;;;;;1.50;1.50;;;;;;;;2;261075511;261075511;-88
2023/05/20 17:24:54;;;;;;;;;1.00;1.00;;;;;;;;2;216063806;216063806;-88
2023/05/20 17:33:10;;;;;;;;;4.00;4.00;;;;;;;;2;261075490;261075490;-88
2023/05/20 17:41:26;;;;;;;;;7.00;7.00;;;;;;;;2;216062828;216062828;-88
2023/05/20 17:49:42;;;;;;;;;3.50;3.50;;;;;;;;2;261078332;261078332;-88
2023/05/20 17:57:57;;;;;;;;;7.50;7.50;;;;;;;;2;216064591;216064591;-89
2023/05/20 18:06:13;;;;;;;;;7.50;7.50;;;;;;;;2;261077727;261077727;-88
2023/05/20 18:14:28;;;;;;;;;3.50;3.50;;;;;;;;2;216062510;216062510;-88
2023/05/20 18:22:44;;;;;;;;;3.50;3.50;;;;;;;;2;261076052;261076052;-88
2023/05/20 18:31:00;;;;;;;;;7.00;7.00;;;;;;;;2;216065272;216065272;-88
2023/05/20 18:39:19;;;;;;;;;3.00;3.00;;;;;;;;2;261076167;261076167;-88
2023/05/20 18:47:34;;;;;;;;;4.00;4.00;;;;;;;;2;216063725;216063725;-88
2023/05/20 18:55:50;;;;;;;;;2.00;2.00;;;;;;;;2;261074452;261074452;-88
2023/05/20 19:04:06;;;;;;;;;5.00;5.00;;;;;;;;2;216060350;216060350;-88
2023/05/20 19:12:21;;;;;;;;;5.00;5.00;;;;;;;;2;261075850;261075850;-88
2023/05/20 19:20:37;;;;;;;;;4.00;4.00;;;;;;;;2;216064638;216064638;-88
2023/05/20 19:28:52;;;;;;;;;4.00;4.00;;;;;;;;2;261077972;261077972;-88
2023/05/20 19:40:27;;;;;;;;;2.50;2.50;;;;;;;;2;216063935;216063935;-88
2023/05/20 19:48:42;;;;;;;;;5.00;5.00;;;;;;;;2;261074389;261074389;-88
2023/05/20 19:56:58;;;;;;;;;4.00;4.00;;;;;;;;2;216064809;216064809;-88
2023/05/20 20:05:13;;;;;;;;;4.00;4.00;;;;;;;;2;261074977;261074977;-88
2023/05/20 20:13:29;;;;;;;;;7.00;7.00;;;;;;;;2;216064177;216064177;-88
2023/05/20 20:21:45;;;;;;;;;6.50;6.50;;;;;;;;2;261075484;261075484;-88
2023/05/20 20:30:00;;;;;;;;;4.50;4.50;;;;;;;;2;216064983;216064983;-88
2023/05/20 20:38:16;;;;;;;;;8.00;8.00;;;;;;;;2;261075244;261075244;-88
2023/05/20 20:46:32;;;;;;;;;5.00;5.00;;;;;;;;2;216064955;216064955;-88
2023/05/20 20:54:47;;;;;;;;;5.00;5.00;;;;;;;;2;261076322;261076322;-88
2023/05/20 21:03:03;;;;;;;;;3.50;3.50;;;;;;;;2;216065463;216065463;-88
2023/05/20 21:11:18;;;;;;;;;8.50;6.50;;;;;;;;2;261073544;261073544;-88
2023/05/20 21:19:35;;;;;;;;;4.50;4.50;;;;;;;;2;216062658;216062658;-88
2023/05/20 21:27:50;;;;;;;;;4.00;4.00;;;;;;;;2;261076962;261076962;-88
2023/05/20 21:36:05;;;;;;;;;6.50;6.50;;;;;;;;2;216063934;216063934;-88
2023/05/20 21:44:21;;;;;;;;;11.00;11.00;;;;;;;;2;261076588;261076588;-88
2023/05/20 21:52:38;;;;;;;;;6.50;6.50;;;;;;;;2;216063490;216063490;-88
2023/05/20 22:00:53;;;;;;;;;12.50;12.50;;;;;;;;2;261077360;261077360;-88
2023/05/20 22:09:09;;;;;;;;;6.50;6.50;;;;;;;;2;216062774;216062774;-88
2023/05/20 22:17:24;;;;;;;;;8.00;8.00;;;;;;;;2;261075825;261075825;-88
2023/05/20 22:25:40;;;;;;;;;6.50;6.50;;;;;;;;2;216063073;216063073;-88
2023/05/20 22:33:55;;;;;;;;;3.50;3.50;;;;;;;;2;261075476;261075476;-88
2023/05/20 22:42:10;;;;;;;;;5.00;5.00;;;;;;;;2;216062353;216062353;-88
2023/05/20 22:50:26;;;;;;;;;6.50;6.50;;;;;;;;2;261076238;261076238;-88
2023/05/20 22:58:42;;;;;;;;;8.50;8.50;;;;;;;;2;216063457;216063457;-88
2023/05/20 23:06:58;;;;;;;;;9.50;9.50;;;;;;;;2;261075946;261075946;-87
2023/05/20 23:15:13;;;;;;;;;12.00;12.00;;;;;;;;2;216063433;216063433;-88
2023/05/20 23:23:28;;;;;;;;;11.00;11.00;;;;;;;;2;261077716;261077716;-88
2023/05/20 23:31:44;;;;;;;;;8.00;8.00;;;;;;;;2;216064455;216064455;-88
2023/05/20 23:39:59;;;;;;;;;7.00;7.00;;;;;;;;2;261077011;261077011;-88
2023/05/20 23:48:18;;;;;;;;;10.00;10.00;;;;;;;;2;216067239;216067239;-88
2023/05/20 23:56:34;;;;;;;;;7.00;7.00;;;;;;;;2;261076198;261076198;-88
